Terminal Aerodrome Forecast
Issued by NWS Twin Cities, MN

Home | Current Version | Previous Version | Text Only | Print | Product List | Glossary On
Versions: 1 2 3 4 5 6 7 8 9 10 11 12 13 14 15 16 17
691
FTUS43 KMPX 271120
TAFEAU
TAF
KEAU 271120Z 2712/2812 VRB03KT P6SM BKN120
     FM272200 VRB03KT P6SM VCTS SCT035 OVC070CB
     FM280200 VRB03KT P6SM -SHRA SCT025 OVC040
     FM280700 06004KT 4SM BR OVC014=

USA.gov is the U.S. government's official web portal to all federal, state and local government web resources and services.